createdAt,value
2023-03-27T00:00:16.335Z,7.50
2023-03-27T00:00:28.453Z,7.50
2023-03-27T00:00:42.555Z,7.50
2023-03-27T00:00:56.714Z,7.50
2023-03-27T00:01:12.020Z,7.50
2023-03-27T00:01:24.158Z,7.50
2023-03-27T00:01:35.919Z,7.50
2023-03-27T00:01:47.837Z,7.50
2023-03-27T00:01:59.966Z,7.50
2023-03-27T00:02:12.098Z,7.50
2023-03-27T00:02:24.067Z,7.50
2023-03-27T00:02:37.891Z,7.40
2023-03-27T00:02:50.134Z,7.50
2023-03-27T00:03:02.142Z,7.50
2023-03-27T00:03:14.572Z,7.50
2023-03-27T00:03:27.249Z,7.50
2023-03-27T00:03:40.861Z,7.50
2023-03-27T00:03:53.749Z,7.50
2023-03-27T00:04:06.540Z,7.50
2023-03-27T00:04:19.662Z,7.50
2023-03-27T00:04:31.619Z,7.50
2023-03-27T00:04:44.115Z,7.50
2023-03-27T00:04:55.881Z,7.50
2023-03-27T00:05:08.112Z,7.50
2023-03-27T00:05:20.660Z,7.50
2023-03-27T00:05:32.600Z,7.50
2023-03-27T00:05:45.938Z,7.50
2023-03-27T00:06:07.334Z,7.50
2023-03-27T00:06:19.735Z,7.50
2023-03-27T00:06:34.572Z,7.50
2023-03-27T00:06:48.965Z,7.50
2023-03-27T00:07:00.661Z,7.50
2023-03-27T00:07:12.437Z,7.50
2023-03-27T00:07:24.289Z,7.60
2023-03-27T00:07:36.083Z,7.60
2023-03-27T00:07:48.590Z,7.60
2023-03-27T00:08:01.583Z,7.60
2023-03-27T00:08:13.567Z,7.60
2023-03-27T00:08:25.596Z,7.60
2023-03-27T00:08:37.871Z,7.60
2023-03-27T00:08:51.016Z,7.60
2023-03-27T00:09:04.526Z,7.60
2023-03-27T00:09:17.100Z,7.60
2023-03-27T00:09:29.823Z,7.60
2023-03-27T00:09:44.272Z,7.60
2023-03-27T00:09:57.482Z,7.60
2023-03-27T00:10:10.088Z,7.60
2023-03-27T00:10:23.227Z,7.60
2023-03-27T00:10:35.853Z,7.60
2023-03-27T00:10:48.229Z,7.60
2023-03-27T00:11:01.182Z,7.60
2023-03-27T00:11:13.280Z,7.60
2023-03-27T00:11:25.353Z,7.60
2023-03-27T00:11:37.133Z,7.50
2023-03-27T00:11:49.109Z,7.60
2023-03-27T00:12:01.595Z,7.60
2023-03-27T00:12:13.331Z,7.60
2023-03-27T00:12:25.129Z,7.60
2023-03-27T00:12:36.978Z,7.60
2023-03-27T00:12:48.751Z,7.60
2023-03-27T00:13:00.621Z,7.60
2023-03-27T00:13:12.560Z,7.60
2023-03-27T00:13:24.372Z,7.60
2023-03-27T00:13:36.584Z,7.60
2023-03-27T00:14:00.895Z,7.50
2023-03-27T00:14:13.059Z,7.50
2023-03-27T00:14:24.876Z,7.50
2023-03-27T00:14:36.626Z,7.50
2023-03-27T00:14:48.377Z,7.50
2023-03-27T00:15:00.911Z,7.50
2023-03-27T00:15:17.056Z,7.50
2023-03-27T00:15:29.979Z,7.50
2023-03-27T00:15:41.709Z,7.50
2023-03-27T00:15:54.526Z,7.50
2023-03-27T00:16:09.757Z,7.50
2023-03-27T00:16:22.698Z,7.50
2023-03-27T00:16:34.518Z,7.50
2023-03-27T00:16:46.278Z,7.50
2023-03-27T00:17:00.310Z,7.50
2023-03-27T00:17:12.341Z,7.50
2023-03-27T00:17:24.311Z,7.50
2023-03-27T00:17:36.984Z,7.60
2023-03-27T00:17:50.363Z,7.60
2023-03-27T00:18:05.134Z,7.60
2023-03-27T00:18:17.510Z,7.60
2023-03-27T00:18:29.802Z,7.60
2023-03-27T00:18:41.725Z,7.60
2023-03-27T00:18:54.302Z,7.50
2023-03-27T00:19:06.182Z,7.60
2023-03-27T00:19:19.149Z,7.60
2023-03-27T00:19:30.922Z,7.60
2023-03-27T00:19:42.805Z,7.60
2023-03-27T00:19:54.562Z,7.60
2023-03-27T00:20:06.660Z,7.60
2023-03-27T00:20:22.476Z,7.60
2023-03-27T00:20:37.247Z,7.60
2023-03-27T00:20:49.199Z,7.60
2023-03-27T00:21:01.169Z,7.60
2023-03-27T00:21:12.918Z,7.60
2023-03-27T00:21:25.805Z,7.60
2023-03-27T00:21:37.562Z,7.60
2023-03-27T00:21:50.090Z,7.60
2023-03-27T00:22:01.849Z,7.60
2023-03-27T00:22:13.564Z,7.60
2023-03-27T00:22:25.641Z,7.60
2023-03-27T00:22:37.563Z,7.60
2023-03-27T00:22:55.408Z,7.60
2023-03-27T00:23:07.109Z,7.60
2023-03-27T00:23:19.987Z,7.60
2023-03-27T00:23:31.928Z,7.60
2023-03-27T00:23:43.695Z,7.60
2023-03-27T00:23:56.802Z,7.60
2023-03-27T00:24:08.826Z,7.60
2023-03-27T00:24:20.671Z,7.60
2023-03-27T00:24:32.899Z,7.60
2023-03-27T00:24:45.348Z,7.60
2023-03-27T00:24:57.176Z,7.60
2023-03-27T00:25:10.469Z,7.60
2023-03-27T00:25:23.641Z,7.60
2023-03-27T00:25:35.538Z,7.60
2023-03-27T00:25:48.692Z,7.70
2023-03-27T00:26:00.655Z,7.70
2023-03-27T00:26:12.728Z,7.60
2023-03-27T00:26:24.517Z,7.70
2023-03-27T00:26:37.923Z,7.60
2023-03-27T00:26:49.774Z,7.70
2023-03-27T00:27:01.496Z,7.70
2023-03-27T00:27:14.503Z,7.60
2023-03-27T00:27:26.284Z,7.70
2023-03-27T00:27:38.049Z,7.70
2023-03-27T00:27:49.853Z,7.70
2023-03-27T00:28:02.828Z,7.70
2023-03-27T00:28:15.477Z,7.60
2023-03-27T00:28:28.676Z,7.70
2023-03-27T00:28:41.248Z,7.60
2023-03-27T00:28:53.671Z,7.70
2023-03-27T00:29:05.679Z,7.70
2023-03-27T00:29:18.382Z,7.70
2023-03-27T00:29:30.213Z,7.70
2023-03-27T00:29:42.038Z,7.70
2023-03-27T00:29:54.148Z,7.70
2023-03-27T00:30:06.475Z,7.60
2023-03-27T00:30:18.931Z,7.60
2023-03-27T00:30:31.112Z,7.70
2023-03-27T00:30:43.647Z,7.60
2023-03-27T00:30:56.490Z,7.70
2023-03-27T00:31:12.408Z,7.70
2023-03-27T00:31:24.307Z,7.70
2023-03-27T00:31:36.400Z,7.70
2023-03-27T00:31:48.212Z,7.70
2023-03-27T00:31:59.895Z,7.70
2023-03-27T00:32:11.680Z,7.70
2023-03-27T00:32:23.419Z,7.70
2023-03-27T00:32:35.166Z,7.70
2023-03-27T00:32:47.223Z,7.70
2023-03-27T00:32:59.452Z,7.70
2023-03-27T00:33:11.830Z,7.70
2023-03-27T00:33:24.143Z,7.60
2023-03-27T00:33:36.019Z,7.70
2023-03-27T00:33:48.126Z,7.70
2023-03-27T00:33:59.996Z,7.70
2023-03-27T00:34:12.376Z,7.70
2023-03-27T00:34:24.175Z,7.70
2023-03-27T00:34:36.238Z,7.70
2023-03-27T00:34:48.118Z,7.70
2023-03-27T00:34:59.952Z,7.70
2023-03-27T00:35:12.287Z,7.70
2023-03-27T00:35:25.186Z,7.70
2023-03-27T00:35:37.006Z,7.70
2023-03-27T00:35:49.260Z,7.70
2023-03-27T00:36:01.204Z,7.70
2023-03-27T00:36:13.391Z,7.70
2023-03-27T00:36:25.234Z,7.70
2023-03-27T00:36:36.965Z,7.70
2023-03-27T00:36:51.219Z,7.70
2023-03-27T00:37:04.724Z,7.70
2023-03-27T00:37:16.584Z,7.60
2023-03-27T00:37:28.365Z,7.70
2023-03-27T00:37:40.568Z,7.70
2023-03-27T00:37:52.769Z,7.70
2023-03-27T00:38:04.507Z,7.70
2023-03-27T00:38:16.436Z,7.70
2023-03-27T00:38:29.679Z,7.70
2023-03-27T00:38:41.715Z,7.60
2023-03-27T00:38:53.579Z,7.60
2023-03-27T00:39:05.346Z,7.60
2023-03-27T00:39:17.273Z,7.60
2023-03-27T00:39:29.775Z,7.60
2023-03-27T00:39:42.677Z,7.60
2023-03-27T00:39:55.833Z,7.60
2023-03-27T00:40:09.578Z,7.60
2023-03-27T00:40:21.937Z,7.60
2023-03-27T00:40:33.892Z,7.60
2023-03-27T00:40:46.740Z,7.60
2023-03-27T00:40:58.566Z,7.60
2023-03-27T00:41:11.004Z,7.60
2023-03-27T00:41:23.050Z,7.60
2023-03-27T00:41:34.953Z,7.60
2023-03-27T00:41:47.430Z,7.50
2023-03-27T00:41:59.287Z,7.60
2023-03-27T00:42:12.963Z,7.60
2023-03-27T00:42:25.064Z,7.60
2023-03-27T00:42:36.815Z,7.60
2023-03-27T00:42:50.362Z,7.60
2023-03-27T00:43:02.428Z,7.60
2023-03-27T00:43:20.447Z,7.50
2023-03-27T00:43:36.281Z,7.60
2023-03-27T00:43:48.783Z,7.50
2023-03-27T00:44:00.613Z,7.50
2023-03-27T00:44:24.048Z,7.50
2023-03-27T00:44:36.879Z,7.60
2023-03-27T00:44:51.577Z,7.60
2023-03-27T00:45:03.488Z,7.60
2023-03-27T00:45:23.167Z,7.60
2023-03-27T00:45:35.218Z,7.60
2023-03-27T00:45:47.260Z,7.60
2023-03-27T00:46:05.827Z,7.60
2023-03-27T00:46:38.960Z,7.60
2023-03-27T00:46:51.313Z,7.60
2023-03-27T00:47:03.151Z,7.60
2023-03-27T00:47:14.965Z,7.60
2023-03-27T00:47:33.688Z,7.60
2023-03-27T00:47:46.314Z,7.60
2023-03-27T00:48:08.027Z,7.60
2023-03-27T00:48:20.809Z,7.60
2023-03-27T00:48:33.186Z,7.60
2023-03-27T00:48:47.394Z,7.60
2023-03-27T00:49:01.478Z,7.60
2023-03-27T00:49:13.244Z,7.60
2023-03-27T00:49:26.555Z,7.60
2023-03-27T00:49:38.413Z,7.60
2023-03-27T00:49:50.098Z,7.60
2023-03-27T00:50:06.645Z,7.60
2023-03-27T00:50:20.024Z,7.60
2023-03-27T00:50:34.444Z,7.60
2023-03-27T00:50:46.792Z,7.60
2023-03-27T00:50:58.784Z,7.60
2023-03-27T00:51:10.696Z,7.60
2023-03-27T00:51:23.030Z,7.60
2023-03-27T00:51:34.786Z,7.70
2023-03-27T00:51:49.787Z,7.60
2023-03-27T00:52:01.912Z,7.70
2023-03-27T00:52:16.290Z,7.70
2023-03-27T00:52:31.322Z,7.70
2023-03-27T00:52:43.660Z,7.70
2023-03-27T00:52:58.717Z,7.70
2023-03-27T00:53:13.121Z,7.70
2023-03-27T00:53:26.720Z,7.70
2023-03-27T00:53:38.747Z,7.70
2023-03-27T00:53:50.514Z,7.70
2023-03-27T00:54:02.234Z,7.70
2023-03-27T00:54:16.385Z,7.70
2023-03-27T00:54:30.005Z,7.70
2023-03-27T00:54:42.881Z,7.70
2023-03-27T00:54:54.623Z,7.70
2023-03-27T00:55:08.651Z,7.80
2023-03-27T00:55:20.531Z,7.70
2023-03-27T00:55:33.189Z,7.70
2023-03-27T00:55:46.394Z,7.70
2023-03-27T00:56:01.162Z,7.70
2023-03-27T00:56:12.958Z,7.80
2023-03-27T00:56:24.761Z,7.80
2023-03-27T00:56:38.654Z,7.80
2023-03-27T00:56:50.650Z,7.80
2023-03-27T00:57:05.393Z,7.80
2023-03-27T00:57:19.482Z,7.80
2023-03-27T00:57:31.444Z,7.80
2023-03-27T00:57:43.540Z,7.80
2023-03-27T00:57:58.817Z,7.80
2023-03-27T00:58:14.504Z,7.80
2023-03-27T00:58:34.228Z,7.80
2023-03-27T00:58:51.347Z,7.80
2023-03-27T00:59:05.374Z,7.80
2023-03-27T00:59:18.301Z,7.80
2023-03-27T00:59:32.074Z,7.80
2023-03-27T00:59:43.785Z,7.80
2023-03-27T00:59:55.947Z,7.80
2023-03-27T01:00:14.170Z,7.80
2023-03-27T01:00:25.843Z,7.80
2023-03-27T01:00:37.566Z,7.80
2023-03-27T01:00:49.928Z,7.80
2023-03-27T01:01:01.803Z,7.90
2023-03-27T01:01:14.940Z,7.80
2023-03-27T01:01:27.790Z,7.80
2023-03-27T01:01:39.599Z,7.80
2023-03-27T01:01:51.469Z,7.90
2023-03-27T01:02:03.771Z,7.80
2023-03-27T01:02:15.654Z,7.90
2023-03-27T01:02:28.032Z,7.90
2023-03-27T01:02:42.969Z,7.80
2023-03-27T01:02:54.837Z,7.90
2023-03-27T01:03:07.219Z,7.90
2023-03-27T01:03:19.256Z,7.90
2023-03-27T01:03:32.309Z,7.90
2023-03-27T01:03:45.572Z,7.90
2023-03-27T01:04:00.628Z,7.90
2023-03-27T01:04:12.466Z,7.90
2023-03-27T01:04:24.312Z,7.90
2023-03-27T01:04:37.228Z,7.90
2023-03-27T01:04:49.086Z,7.90
2023-03-27T01:05:01.162Z,7.90
2023-03-27T01:05:13.011Z,7.90
2023-03-27T01:05:24.984Z,7.90
2023-03-27T01:05:36.877Z,7.90
2023-03-27T01:05:49.047Z,7.90
2023-03-27T01:06:01.643Z,7.90
2023-03-27T01:06:14.563Z,7.90
2023-03-27T01:06:26.302Z,7.90
2023-03-27T01:06:38.231Z,7.90
2023-03-27T01:06:51.885Z,7.90
2023-03-27T01:07:05.470Z,8.00
2023-03-27T01:07:17.375Z,7.90
2023-03-27T01:07:29.435Z,7.90
2023-03-27T01:07:41.431Z,7.90
2023-03-27T01:08:13.490Z,7.90
2023-03-27T01:08:25.366Z,8.00
2023-03-27T01:08:37.930Z,8.00
2023-03-27T01:08:49.858Z,8.00
2023-03-27T01:09:01.605Z,7.90
2023-03-27T01:09:20.886Z,7.90
2023-03-27T01:09:33.547Z,7.90
2023-03-27T01:09:45.813Z,8.00
2023-03-27T01:09:57.618Z,7.90
2023-03-27T01:10:10.168Z,7.90
2023-03-27T01:10:21.868Z,8.00
2023-03-27T01:10:57.755Z,8.00
2023-03-27T01:11:34.299Z,8.00
2023-03-27T01:12:11.004Z,8.00
2023-03-27T01:12:33.816Z,8.00
2023-03-27T01:13:09.291Z,8.00
2023-03-27T01:13:50.755Z,8.00
2023-03-27T01:14:31.836Z,8.00
2023-03-27T01:15:14.027Z,8.00
2023-03-27T01:15:35.073Z,8.00
2023-03-27T01:16:12.946Z,8.00
2023-03-27T01:16:49.098Z,8.00
2023-03-27T01:17:37.889Z,8.00
2023-03-27T01:18:08.609Z,8.10
2023-03-27T01:18:33.396Z,8.00
2023-03-27T01:19:05.432Z,8.00
2023-03-27T01:19:29.141Z,8.00
2023-03-27T01:20:13.979Z,8.00
2023-03-27T01:20:47.114Z,8.00
2023-03-27T01:21:23.502Z,8.10
2023-03-27T01:21:43.054Z,8.10
2023-03-27T01:22:16.715Z,8.00
2023-03-27T01:22:50.041Z,8.10
2023-03-27T01:23:59.025Z,8.00
2023-03-27T01:24:33.748Z,8.00
2023-03-27T01:25:17.626Z,8.10
2023-03-27T01:25:54.528Z,8.00
2023-03-27T01:26:09.020Z,8.00
2023-03-27T01:26:35.313Z,8.00
2023-03-27T01:27:10.979Z,8.00
2023-03-27T01:27:37.874Z,8.00
2023-03-27T01:28:26.587Z,8.10
2023-03-27T01:29:01.766Z,8.00
2023-03-27T01:29:26.474Z,8.00
2023-03-27T01:29:43.683Z,8.00
2023-03-27T01:30:06.802Z,8.00
2023-03-27T01:30:24.006Z,8.10
2023-03-27T01:31:43.302Z,8.00
2023-03-27T01:32:13.776Z,8.00
2023-03-27T01:32:28.394Z,8.00
2023-03-27T01:33:01.801Z,8.00
2023-03-27T01:33:51.393Z,8.00
2023-03-27T01:34:13.656Z,8.00
2023-03-27T01:34:45.957Z,8.00
2023-03-27T01:35:28.683Z,8.00
2023-03-27T01:36:10.599Z,8.00
2023-03-27T01:36:31.761Z,8.00
2023-03-27T01:37:07.985Z,8.00
2023-03-27T01:37:24.787Z,8.00
2023-03-27T01:38:10.523Z,8.00
2023-03-27T01:38:31.065Z,8.00
2023-03-27T01:39:02.794Z,8.00
2023-03-27T01:39:39.327Z,8.00
2023-03-27T01:40:05.041Z,8.00
2023-03-27T01:40:29.940Z,8.00
2023-03-27T01:40:51.399Z,8.00
2023-03-27T01:41:20.271Z,8.10
2023-03-27T01:41:37.698Z,8.00
2023-03-27T01:42:09.509Z,8.10
2023-03-27T01:42:32.318Z,8.10
2023-03-27T01:43:12.570Z,8.10
2023-03-27T01:43:30.529Z,8.10
2023-03-27T01:43:48.139Z,8.10
2023-03-27T01:44:04.001Z,8.10
2023-03-27T01:44:43.821Z,8.10
2023-03-27T01:45:09.495Z,8.20
2023-03-27T01:45:30.848Z,8.20
2023-03-27T01:45:50.598Z,8.20
2023-03-27T01:46:35.726Z,8.20
2023-03-27T01:46:53.622Z,8.20
2023-03-27T01:47:13.799Z,8.20
2023-03-27T01:47:41.031Z,8.20
2023-03-27T01:48:03.630Z,8.20
2023-03-27T01:48:25.965Z,8.20
2023-03-27T01:48:40.322Z,8.20
2023-03-27T01:49:00.446Z,8.20
2023-03-27T01:49:16.702Z,8.20
2023-03-27T01:49:31.634Z,8.30
2023-03-27T01:49:49.668Z,8.30
2023-03-27T01:50:08.133Z,8.30
2023-03-27T01:50:29.694Z,8.30
2023-03-27T01:50:41.469Z,8.30
2023-03-27T01:51:44.241Z,8.30
2023-03-27T01:51:58.440Z,8.30
2023-03-27T01:52:15.573Z,8.30
2023-03-27T01:52:29.540Z,8.30
2023-03-27T01:52:44.058Z,8.30
2023-03-27T01:53:09.184Z,8.30
2023-03-27T01:53:33.904Z,8.30
2023-03-27T01:55:34.517Z,8.40
2023-03-27T01:55:49.173Z,8.40
2023-03-27T01:56:10.756Z,8.40
2023-03-27T01:56:26.660Z,8.40
2023-03-27T01:56:40.719Z,8.40
2023-03-27T01:56:55.605Z,8.40
2023-03-27T01:57:27.989Z,8.40
2023-03-27T01:57:49.558Z,8.40
2023-03-27T01:58:07.493Z,8.40
2023-03-27T01:58:21.524Z,8.40
2023-03-27T01:58:37.858Z,8.40
2023-03-27T01:58:49.566Z,8.40
2023-03-27T01:59:04.646Z,8.40
2023-03-27T01:59:16.547Z,8.40
2023-03-27T01:59:28.935Z,8.40
2023-03-27T01:59:41.563Z,8.40
2023-03-27T01:59:56.204Z,8.40
2023-03-27T02:00:24.954Z,8.40
2023-03-27T02:00:52.241Z,8.40
2023-03-27T02:01:06.465Z,8.40
2023-03-27T02:01:22.436Z,8.40
2023-03-27T02:01:36.963Z,8.40
2023-03-27T02:01:53.664Z,8.40
2023-03-27T02:02:19.895Z,8.40
2023-03-27T02:02:32.091Z,8.40
2023-03-27T02:02:55.878Z,8.40
2023-03-27T02:03:14.627Z,8.40
2023-03-27T02:03:31.913Z,8.40
2023-03-27T02:03:45.350Z,8.40
2023-03-27T02:03:58.105Z,8.40
2023-03-27T02:04:13.376Z,8.30
2023-03-27T02:04:28.515Z,8.40
2023-03-27T02:04:50.412Z,8.40
2023-03-27T02:05:05.808Z,8.30
2023-03-27T02:05:20.935Z,8.30
2023-03-27T02:05:36.656Z,8.30
2023-03-27T02:05:53.104Z,8.30
2023-03-27T02:06:08.722Z,8.30
2023-03-27T02:06:38.172Z,8.30
2023-03-27T02:06:55.485Z,8.30
2023-03-27T02:07:12.055Z,8.30
2023-03-27T02:07:30.270Z,8.30
2023-03-27T02:07:47.462Z,8.30
2023-03-27T02:08:08.708Z,8.30
2023-03-27T02:08:26.463Z,8.40
2023-03-27T02:08:57.836Z,8.30
2023-03-27T02:09:13.005Z,8.30
2023-03-27T02:09:28.352Z,8.30
2023-03-27T02:09:46.678Z,8.30
2023-03-27T02:10:00.395Z,8.30
2023-03-27T02:10:15.621Z,8.40
2023-03-27T02:10:31.218Z,8.40
2023-03-27T02:10:43.943Z,8.40
2023-03-27T02:10:58.337Z,8.40
2023-03-27T02:11:10.346Z,8.40
2023-03-27T02:11:27.479Z,8.40
2023-03-27T02:11:48.979Z,8.40
2023-03-27T02:12:04.936Z,8.40
2023-03-27T02:12:24.477Z,8.40
2023-03-27T02:12:38.716Z,8.40
2023-03-27T02:12:52.996Z,8.40
2023-03-27T02:13:09.878Z,8.40
2023-03-27T02:13:48.814Z,8.50
2023-03-27T02:14:02.463Z,8.50
2023-03-27T02:14:17.552Z,8.40
2023-03-27T02:14:31.032Z,8.40
2023-03-27T02:14:47.958Z,8.40
2023-03-27T02:15:24.725Z,8.40
2023-03-27T02:15:38.087Z,8.40
2023-03-27T02:15:50.056Z,8.40
2023-03-27T02:16:02.019Z,8.40
2023-03-27T02:16:16.664Z,8.40
2023-03-27T02:16:33.963Z,8.40
2023-03-27T02:16:48.796Z,8.40
2023-03-27T02:17:02.213Z,8.40
2023-03-27T02:17:14.186Z,8.40
2023-03-27T02:17:29.227Z,8.40
2023-03-27T02:17:49.071Z,8.40
2023-03-27T02:18:05.592Z,8.40
2023-03-27T02:18:20.854Z,8.40
2023-03-27T02:18:36.620Z,8.40
2023-03-27T02:18:56.818Z,8.40
2023-03-27T02:19:23.246Z,8.40
2023-03-27T02:19:37.941Z,8.40
2023-03-27T02:19:56.838Z,8.40
2023-03-27T02:20:16.167Z,8.40
2023-03-27T02:20:27.956Z,8.40
2023-03-27T02:20:40.174Z,8.40
2023-03-27T02:20:51.894Z,8.40
2023-03-27T02:21:04.174Z,8.40
2023-03-27T02:21:16.025Z,8.30
2023-03-27T02:21:28.088Z,8.30
2023-03-27T02:21:39.869Z,8.40
2023-03-27T02:21:51.893Z,8.30
2023-03-27T02:22:03.783Z,8.30
2023-03-27T02:22:15.868Z,8.40
2023-03-27T02:22:37.677Z,8.40
2023-03-27T02:22:50.539Z,8.40
2023-03-27T02:23:02.403Z,8.40
2023-03-27T02:23:14.324Z,8.40
2023-03-27T02:23:26.081Z,8.40
2023-03-27T02:23:38.376Z,8.40
2023-03-27T02:23:50.216Z,8.40
2023-03-27T02:24:02.462Z,8.40
2023-03-27T02:24:16.769Z,8.40
2023-03-27T02:24:28.933Z,8.40
2023-03-27T02:24:43.261Z,8.40
2023-03-27T02:24:55.410Z,8.30
2023-03-27T02:25:28.902Z,8.40
2023-03-27T02:25:44.671Z,8.40
2023-03-27T02:25:56.576Z,8.30
2023-03-27T02:26:11.032Z,8.40
2023-03-27T02:26:22.929Z,8.40
2023-03-27T02:26:34.764Z,8.40
2023-03-27T02:26:46.542Z,8.30
2023-03-27T02:27:01.885Z,8.40
2023-03-27T02:27:18.184Z,8.40
2023-03-27T02:27:36.111Z,8.40
2023-03-27T02:27:48.574Z,8.40
2023-03-27T02:28:00.316Z,8.40
2023-03-27T02:28:35.005Z,8.40
2023-03-27T02:28:56.089Z,8.40
2023-03-27T02:29:23.202Z,8.40
2023-03-27T02:29:53.811Z,8.40
2023-03-27T02:30:19.693Z,8.40
2023-03-27T02:31:32.801Z,8.40
2023-03-27T02:32:09.292Z,8.40
2023-03-27T02:32:44.602Z,8.40
2023-03-27T02:33:16.417Z,8.40
2023-03-27T02:33:46.813Z,8.40
2023-03-27T02:34:14.706Z,8.40
2023-03-27T02:34:34.194Z,8.40
2023-03-27T02:35:13.763Z,8.40
2023-03-27T02:35:28.561Z,8.40
2023-03-27T02:35:46.255Z,8.40
2023-03-27T02:36:45.758Z,8.40
2023-03-27T02:37:02.246Z,8.40
2023-03-27T02:52:53.333Z,8.40
2023-03-27T02:53:05.149Z,8.50
2023-03-27T02:53:18.739Z,8.40
2023-03-27T02:53:32.070Z,8.40
2023-03-27T02:53:50.023Z,8.40
2023-03-27T02:54:06.764Z,8.40
2023-03-27T02:54:30.662Z,8.40
2023-03-27T02:54:49.135Z,8.40
2023-03-27T02:55:07.185Z,8.40
2023-03-27T02:55:24.412Z,8.40
2023-03-27T02:55:38.685Z,8.40
2023-03-27T02:55:54.559Z,8.40
2023-03-27T02:56:06.835Z,8.40
2023-03-27T02:56:18.619Z,8.50
2023-03-27T02:56:32.276Z,8.50
2023-03-27T02:57:04.606Z,8.50
2023-03-27T02:57:18.793Z,8.50
2023-03-27T02:57:31.760Z,8.50
2023-03-27T02:57:52.370Z,8.50
2023-03-27T02:58:07.461Z,8.50
2023-03-27T02:58:22.206Z,8.50
2023-03-27T02:58:45.225Z,8.50
2023-03-27T02:58:59.990Z,8.50
2023-03-27T02:59:18.724Z,8.50
2023-03-27T02:59:35.794Z,8.50
2023-03-27T02:59:51.071Z,8.60
2023-03-27T03:00:05.422Z,8.60
2023-03-27T03:00:20.696Z,8.60
2023-03-27T03:00:33.957Z,8.60
2023-03-27T03:00:48.984Z,8.60
2023-03-27T03:01:01.021Z,8.60
2023-03-27T03:01:16.537Z,8.60
2023-03-27T03:01:30.769Z,8.60
2023-03-27T03:01:45.496Z,8.60
2023-03-27T03:01:57.696Z,8.60
2023-03-27T03:02:12.325Z,8.60
2023-03-27T03:02:27.117Z,8.60
2023-03-27T03:02:40.861Z,8.60
2023-03-27T03:03:05.960Z,8.60
2023-03-27T03:03:41.776Z,8.60
2023-03-27T03:04:01.995Z,8.60
2023-03-27T03:04:24.362Z,8.60
2023-03-27T03:04:41.760Z,8.60
2023-03-27T03:05:14.383Z,8.70
2023-03-27T03:05:26.075Z,8.70
2023-03-27T03:05:38.233Z,8.60
2023-03-27T03:05:50.866Z,8.60
2023-03-27T03:06:07.475Z,8.60
2023-03-27T03:06:22.199Z,8.60
2023-03-27T03:06:33.915Z,8.60
2023-03-27T03:06:45.681Z,8.60
2023-03-27T03:06:57.367Z,8.60
2023-03-27T03:07:09.928Z,8.60
2023-03-27T03:07:22.942Z,8.60
2023-03-27T03:07:34.873Z,8.60
2023-03-27T03:07:47.718Z,8.60
2023-03-27T03:07:59.569Z,8.60
2023-03-27T03:08:11.650Z,8.50
2023-03-27T03:08:23.771Z,8.50
2023-03-27T03:08:38.728Z,8.50
2023-03-27T03:08:51.044Z,8.50
2023-03-27T03:09:05.947Z,8.50
2023-03-27T03:09:19.032Z,8.50
2023-03-27T03:09:31.139Z,8.50
2023-03-27T03:09:44.566Z,8.50
2023-03-27T03:09:56.370Z,8.50
2023-03-27T03:10:09.851Z,8.50
2023-03-27T03:10:21.633Z,8.50
2023-03-27T03:10:33.408Z,8.50
2023-03-27T03:10:45.268Z,8.50
2023-03-27T03:11:01.863Z,8.50
2023-03-27T03:11:14.293Z,8.50
2023-03-27T03:11:26.080Z,8.50
2023-03-27T03:11:39.396Z,8.50
2023-03-27T03:11:54.157Z,8.50
2023-03-27T03:12:05.944Z,8.50
2023-03-27T03:12:17.820Z,8.40
2023-03-27T03:12:29.649Z,8.40
2023-03-27T03:12:41.821Z,8.50
2023-03-27T03:12:53.575Z,8.50
2023-03-27T03:13:05.348Z,8.50
2023-03-27T03:13:17.694Z,8.50
2023-03-27T03:13:29.440Z,8.50
2023-03-27T03:13:41.346Z,8.50
2023-03-27T03:13:53.099Z,8.50
2023-03-27T03:14:04.894Z,8.40
2023-03-27T03:14:18.652Z,8.50
2023-03-27T03:14:32.055Z,8.50
2023-03-27T03:14:46.615Z,8.50
2023-03-27T03:14:58.409Z,8.50
2023-03-27T03:15:10.716Z,8.50
2023-03-27T03:15:22.861Z,8.50
2023-03-27T03:15:35.102Z,8.50
2023-03-27T03:15:48.931Z,8.40
2023-03-27T03:16:01.977Z,8.40
2023-03-27T03:16:13.768Z,8.40
2023-03-27T03:16:26.131Z,8.50
2023-03-27T03:16:38.019Z,8.40
2023-03-27T03:16:49.809Z,8.50
2023-03-27T03:17:01.877Z,8.40
2023-03-27T03:17:14.084Z,8.40
2023-03-27T03:17:26.000Z,8.50
2023-03-27T03:17:37.999Z,8.50
2023-03-27T03:17:49.879Z,8.40
2023-03-27T03:18:01.764Z,8.40
2023-03-27T03:18:16.964Z,8.40
2023-03-27T03:18:28.738Z,8.40
2023-03-27T03:18:40.503Z,8.40
2023-03-27T03:18:52.614Z,8.40
2023-03-27T03:19:04.481Z,8.40
2023-03-27T03:19:16.150Z,8.40
2023-03-27T03:19:27.870Z,8.40
2023-03-27T03:19:39.622Z,8.50
2023-03-27T03:19:51.363Z,8.50
2023-03-27T03:20:05.500Z,8.50
2023-03-27T03:20:17.364Z,8.50
2023-03-27T03:20:29.775Z,8.50
2023-03-27T03:20:41.679Z,8.50
2023-03-27T03:20:56.405Z,8.50
2023-03-27T03:21:08.644Z,8.50
2023-03-27T03:21:20.495Z,8.50
2023-03-27T03:21:32.222Z,8.50
2023-03-27T03:21:44.547Z,8.40
2023-03-27T03:21:56.441Z,8.40
2023-03-27T03:22:08.447Z,8.40
2023-03-27T03:22:20.212Z,8.50
2023-03-27T03:22:31.987Z,8.50
2023-03-27T03:22:43.912Z,8.50
2023-03-27T03:22:57.300Z,8.50
2023-03-27T03:23:09.121Z,8.50
2023-03-27T03:23:21.927Z,8.50
2023-03-27T03:23:33.985Z,8.50
2023-03-27T03:23:57.916Z,8.50
2023-03-27T03:24:10.739Z,8.50
2023-03-27T03:24:22.536Z,8.50
2023-03-27T03:24:37.515Z,8.40
2023-03-27T03:24:49.337Z,8.50
2023-03-27T03:25:04.061Z,8.50
2023-03-27T03:25:15.884Z,8.50
2023-03-27T03:25:27.635Z,8.50
2023-03-27T03:25:39.428Z,8.50
2023-03-27T03:25:52.797Z,8.50
2023-03-27T03:26:05.234Z,8.50
2023-03-27T03:26:17.172Z,8.50
2023-03-27T03:26:30.215Z,8.50
2023-03-27T03:26:42.064Z,8.50
2023-03-27T03:26:53.931Z,8.50
2023-03-27T03:27:05.913Z,8.50
2023-03-27T03:27:21.039Z,8.50
2023-03-27T03:27:34.045Z,8.50
2023-03-27T03:27:45.954Z,8.50
2023-03-27T03:28:00.587Z,8.60
2023-03-27T03:28:13.080Z,8.60
2023-03-27T03:28:27.958Z,8.50
2023-03-27T03:28:39.889Z,8.60
2023-03-27T03:29:12.860Z,8.50
2023-03-27T03:29:35.674Z,8.50
2023-03-27T03:29:48.531Z,8.60
2023-03-27T03:30:00.874Z,8.60
2023-03-27T03:30:17.032Z,8.60
2023-03-27T03:30:31.245Z,8.60
2023-03-27T03:30:45.525Z,8.60
2023-03-27T03:30:59.408Z,8.60
2023-03-27T03:31:11.507Z,8.60
2023-03-27T03:31:23.601Z,8.60
2023-03-27T03:31:44.720Z,8.60
2023-03-27T03:31:57.660Z,8.50
2023-03-27T03:32:09.349Z,8.60
2023-03-27T03:32:21.093Z,8.60
2023-03-27T03:32:34.061Z,8.60
2023-03-27T03:32:47.256Z,8.60
2023-03-27T03:33:00.224Z,8.60
2023-03-27T03:33:12.237Z,8.50
2023-03-27T03:33:28.595Z,8.50
2023-03-27T03:33:40.463Z,8.60
2023-03-27T03:33:52.243Z,8.60
2023-03-27T03:34:04.188Z,8.50
2023-03-27T03:34:18.349Z,8.50
2023-03-27T03:34:30.523Z,8.50
2023-03-27T03:34:46.644Z,8.50
2023-03-27T03:34:58.658Z,8.50
2023-03-27T03:35:10.480Z,8.50
2023-03-27T03:35:23.652Z,8.50
2023-03-27T03:35:35.815Z,8.50
2023-03-27T03:35:48.711Z,8.50
2023-03-27T03:36:00.818Z,8.50
2023-03-27T03:36:14.897Z,8.50
2023-03-27T03:36:30.693Z,8.60
2023-03-27T03:36:43.035Z,8.60
2023-03-27T03:36:55.243Z,8.50
2023-03-27T03:37:10.550Z,8.60
2023-03-27T03:37:28.728Z,8.60
2023-03-27T03:37:40.538Z,8.50
2023-03-27T03:37:52.885Z,8.60
2023-03-27T03:38:05.729Z,8.60
2023-03-27T03:38:26.614Z,8.60
2023-03-27T03:38:38.420Z,8.60
2023-03-27T03:38:50.302Z,8.60
2023-03-27T03:39:03.473Z,8.60
2023-03-27T03:39:16.002Z,8.60
2023-03-27T03:39:27.742Z,8.60
2023-03-27T03:39:39.416Z,8.60
2023-03-27T03:39:52.136Z,8.60
2023-03-27T03:40:11.603Z,8.60
2023-03-27T03:40:23.316Z,8.60
2023-03-27T03:40:35.018Z,8.60
2023-03-27T03:40:46.731Z,8.60
2023-03-27T03:40:59.459Z,8.60
2023-03-27T03:41:11.526Z,8.60
2023-03-27T03:41:23.234Z,8.60
2023-03-27T03:41:34.975Z,8.60
2023-03-27T03:41:46.763Z,8.60
2023-03-27T03:41:58.533Z,8.60
2023-03-27T03:42:10.260Z,8.60
2023-03-27T03:42:34.691Z,8.60
2023-03-27T03:42:49.877Z,8.60
2023-03-27T03:43:01.625Z,8.50
2023-03-27T03:43:13.572Z,8.60
2023-03-27T03:43:26.614Z,8.60
2023-03-27T03:43:38.372Z,8.60
2023-03-27T03:43:51.345Z,8.60
2023-03-27T03:44:03.265Z,8.60
2023-03-27T03:44:15.044Z,8.50
2023-03-27T03:44:26.809Z,8.50
2023-03-27T03:44:38.587Z,8.60
2023-03-27T03:44:50.714Z,8.50
2023-03-27T03:45:02.491Z,8.50
2023-03-27T03:45:14.495Z,8.50
2023-03-27T03:45:26.195Z,8.50
2023-03-27T03:45:37.972Z,8.50
2023-03-27T03:45:50.444Z,8.50
2023-03-27T03:46:02.762Z,8.50
2023-03-27T03:46:14.542Z,8.50
2023-03-27T03:46:26.399Z,8.50
2023-03-27T03:46:38.286Z,8.50
2023-03-27T03:46:50.244Z,8.50
2023-03-27T03:47:01.936Z,8.50
2023-03-27T03:47:13.746Z,8.50
2023-03-27T03:47:25.702Z,8.50
2023-03-27T03:47:37.479Z,8.50
2023-03-27T03:47:49.256Z,8.50
2023-03-27T03:48:01.087Z,8.50
2023-03-27T03:48:12.814Z,8.50
2023-03-27T03:48:24.567Z,8.50
2023-03-27T03:48:36.394Z,8.50
2023-03-27T03:48:48.256Z,8.50
2023-03-27T03:49:00.402Z,8.50
2023-03-27T03:49:12.060Z,8.50
2023-03-27T03:49:23.762Z,8.50